createdAt,value
2023-02-25T00:02:24.250Z,95918.22
2023-02-25T00:06:27.012Z,95928.31
2023-02-25T00:10:30.290Z,95932.63
2023-02-25T00:14:32.970Z,95914.75
2023-02-25T00:18:40.770Z,95928.91
2023-02-25T00:22:43.638Z,95932.41
2023-02-25T00:26:46.359Z,95951.53
2023-02-25T00:30:49.090Z,95946.78
2023-02-25T00:34:53.142Z,95942.47
2023-02-25T00:38:57.998Z,95963.41
2023-02-25T00:43:00.669Z,95950.50
2023-02-25T00:47:03.463Z,95933.63
2023-02-25T00:51:09.606Z,95945.16
2023-02-25T00:55:12.258Z,95944.31
2023-02-25T00:59:14.991Z,95947.41
2023-02-25T01:03:17.827Z,95955.41
2023-02-25T01:07:22.024Z,95949.03
2023-02-25T01:11:27.623Z,95945.72
2023-02-25T01:15:31.386Z,95934.06
2023-02-25T01:19:33.988Z,95946.34
2023-02-25T01:23:37.992Z,95941.00
2023-02-25T01:27:40.917Z,95950.69
2023-02-25T01:31:44.581Z,95964.66
2023-02-25T01:35:47.329Z,95951.31
2023-02-25T01:39:51.388Z,95945.34
2023-02-25T01:44:09.042Z,95967.13
2023-02-25T01:48:17.402Z,95956.22
2023-02-25T01:52:24.406Z,95952.13
2023-02-25T01:56:28.587Z,95971.41
2023-02-25T02:00:33.631Z,95964.03
2023-02-25T02:04:39.456Z,95965.66
2023-02-25T02:08:43.166Z,95987.81
2023-02-25T02:12:48.682Z,95975.28
2023-02-25T02:17:13.447Z,95973.19
2023-02-25T02:21:36.909Z,95985.09
2023-02-25T02:26:00.224Z,95976.25
2023-02-25T02:30:33.289Z,95992.88
2023-02-25T02:34:47.188Z,95993.63
2023-02-25T02:38:56.361Z,96001.34
2023-02-25T02:43:10.572Z,95984.72
2023-02-25T02:47:18.180Z,95984.09
2023-02-25T02:51:25.773Z,95985.69
2023-02-25T02:55:35.222Z,95983.38
2023-02-25T02:59:42.803Z,95988.06
2023-02-25T03:03:48.955Z,95991.09
2023-02-25T03:08:00.465Z,95995.00
2023-02-25T03:12:03.148Z,96000.06
2023-02-25T03:16:08.832Z,96002.91
2023-02-25T03:20:18.105Z,96010.84
2023-02-25T03:24:28.943Z,96008.53
2023-02-25T03:28:33.896Z,96001.91
2023-02-25T03:32:39.884Z,96023.66
2023-02-25T03:36:46.224Z,96016.06
2023-02-25T03:40:51.941Z,96018.34
2023-02-25T03:44:57.801Z,96030.25
2023-02-25T03:49:02.774Z,96024.72
2023-02-25T03:53:05.986Z,96045.09
2023-02-25T03:57:10.585Z,96039.16
2023-02-25T04:01:17.536Z,96058.25
2023-02-25T04:05:21.147Z,96052.44
2023-02-25T04:09:23.817Z,96054.03
2023-02-25T04:13:27.840Z,96072.25
2023-02-25T04:17:30.783Z,96051.34
2023-02-25T04:21:35.397Z,96077.16
2023-02-25T04:25:38.441Z,96073.41
2023-02-25T04:29:42.458Z,96081.78
2023-02-25T04:33:49.708Z,96088.50
2023-02-25T04:37:52.362Z,96099.41
2023-02-25T04:41:55.338Z,96087.28
2023-02-25T04:45:59.352Z,96085.81
2023-02-25T04:50:02.024Z,96080.94
2023-02-25T04:54:04.961Z,96085.88
2023-02-25T04:58:07.556Z,96081.19
2023-02-25T05:02:11.939Z,96092.47
2023-02-25T05:06:14.572Z,96090.03
2023-02-25T05:10:17.695Z,96103.13
2023-02-25T05:14:20.411Z,96107.50
2023-02-25T05:18:24.392Z,96108.34
2023-02-25T05:22:27.511Z,96102.00
2023-02-25T05:26:30.135Z,96111.25
2023-02-25T05:30:32.771Z,96106.13
2023-02-25T05:34:36.754Z,96102.81
2023-02-25T05:38:40.763Z,96088.66
2023-02-25T05:42:43.414Z,96097.47
2023-02-25T05:46:46.131Z,96102.44
2023-02-25T05:50:50.696Z,96104.84
2023-02-25T05:54:53.303Z,96110.56
2023-02-25T05:58:56.724Z,96096.34
2023-02-25T06:02:59.431Z,96121.97
2023-02-25T06:07:04.267Z,96127.31
2023-02-25T06:11:07.554Z,96125.47
2023-02-25T06:15:10.709Z,96128.50
2023-02-25T06:19:13.547Z,96121.34
2023-02-25T06:23:17.684Z,96124.66
2023-02-25T06:27:20.500Z,96126.28
2023-02-25T06:31:25.090Z,96125.91
2023-02-25T06:35:27.824Z,96133.13
2023-02-25T06:39:31.901Z,96150.84
2023-02-25T06:43:34.522Z,96141.41
2023-02-25T06:47:37.141Z,96148.63
2023-02-25T06:51:39.885Z,96151.94
2023-02-25T06:55:43.846Z,96165.13
2023-02-25T06:59:46.587Z,96164.53
2023-02-25T07:03:49.589Z,96173.59
2023-02-25T07:07:52.222Z,96171.00
2023-02-25T07:11:56.304Z,96166.31
2023-02-25T07:15:59.051Z,96171.88
2023-02-25T07:20:01.867Z,96180.31
2023-02-25T07:24:04.952Z,96182.16
2023-02-25T07:28:08.917Z,96187.31
2023-02-25T07:32:11.866Z,96173.72
2023-02-25T07:36:15.986Z,96188.50
2023-02-25T07:40:19.854Z,96183.28
2023-02-25T07:44:24.090Z,96179.47
2023-02-25T07:48:26.708Z,96164.09
2023-02-25T07:52:29.398Z,96176.41
2023-02-25T07:56:32.922Z,96182.19
2023-02-25T08:00:38.501Z,96183.84
2023-02-25T08:04:41.589Z,96187.50
2023-02-25T08:08:44.433Z,96183.22
2023-02-25T08:12:47.049Z,96183.88
2023-02-25T08:16:53.333Z,96180.00
2023-02-25T08:20:58.324Z,96191.94
2023-02-25T08:25:00.990Z,96198.81
2023-02-25T08:29:04.763Z,96205.13
2023-02-25T08:33:08.874Z,96193.75
2023-02-25T08:37:12.314Z,96208.09
2023-02-25T08:41:15.695Z,96197.78
2023-02-25T08:45:18.595Z,96212.19
2023-02-25T08:49:22.596Z,96213.06
2023-02-25T08:53:25.232Z,96211.03
2023-02-25T08:57:27.948Z,96209.81
2023-02-25T09:01:44.609Z,96209.03
2023-02-25T09:05:53.480Z,96204.75
2023-02-25T09:09:56.098Z,96201.28
2023-02-25T09:13:58.830Z,96195.13
2023-02-25T09:18:01.579Z,96194.56
2023-02-25T09:22:05.991Z,96204.63
2023-02-25T09:26:09.125Z,96198.66
2023-02-25T09:30:12.594Z,96202.75
2023-02-25T09:34:15.435Z,96206.44
2023-02-25T09:38:20.088Z,96214.69
2023-02-25T09:42:26.291Z,96213.38
2023-02-25T09:46:31.444Z,96219.94
2023-02-25T09:50:39.568Z,96216.25
2023-02-25T09:54:45.920Z,96217.09
2023-02-25T09:58:54.232Z,96213.22
2023-02-25T10:03:03.844Z,96211.41
2023-02-25T10:07:16.294Z,96200.09
2023-02-25T10:11:37.316Z,96204.47
2023-02-25T10:15:53.299Z,96203.03
2023-02-25T10:20:18.471Z,96200.59
2023-02-25T10:24:34.730Z,96198.75
2023-02-25T10:28:41.617Z,96206.59
2023-02-25T10:32:46.149Z,96187.03
2023-02-25T10:36:55.266Z,96184.69
2023-02-25T10:40:59.315Z,96177.78
2023-02-25T10:45:09.202Z,96192.31
2023-02-25T10:49:16.972Z,96178.13
2023-02-25T10:53:20.379Z,96216.97
2023-02-25T10:57:26.880Z,96177.09
2023-02-25T11:01:37.203Z,96171.56
2023-02-25T11:05:41.463Z,96170.81
2023-02-25T11:09:44.115Z,96171.75
2023-02-25T11:13:55.867Z,96164.31
2023-02-25T11:18:07.753Z,96164.44
2023-02-25T11:22:17.233Z,96165.13
2023-02-25T11:26:30.307Z,96158.91
2023-02-25T11:30:37.531Z,96171.31
2023-02-25T11:34:48.430Z,96164.56
2023-02-25T11:39:03.592Z,96157.81
2023-02-25T11:43:19.239Z,96144.00
2023-02-25T11:47:26.225Z,96136.38
2023-02-25T11:51:34.233Z,96120.16
2023-02-25T11:55:56.667Z,96127.75
2023-02-25T12:00:11.865Z,96134.34
2023-02-25T12:04:46.741Z,96134.50
2023-02-25T12:09:12.468Z,96114.56
2023-02-25T12:13:41.544Z,96119.44
2023-02-25T12:18:06.015Z,96118.94
2023-02-25T12:22:39.457Z,96112.94
2023-02-25T12:27:02.924Z,96116.41
2023-02-25T12:31:37.063Z,96111.53
2023-02-25T12:35:56.504Z,96100.22
2023-02-25T12:40:11.300Z,96099.53
2023-02-25T12:44:39.204Z,96086.41
2023-02-25T12:49:05.342Z,96097.31
2023-02-25T12:53:23.324Z,96085.09
2023-02-25T12:57:38.845Z,96084.31
2023-02-25T13:01:57.765Z,96089.50
2023-02-25T13:06:20.769Z,96084.72
2023-02-25T13:10:38.089Z,96100.91
2023-02-25T13:14:50.924Z,96089.81
2023-02-25T13:19:10.580Z,96086.72
2023-02-25T13:23:24.557Z,96085.00
2023-02-25T13:27:53.656Z,96087.66
2023-02-25T13:32:18.237Z,96084.88
2023-02-25T13:36:45.698Z,96111.75
2023-02-25T13:40:59.408Z,96094.72
2023-02-25T13:45:28.951Z,96113.28
2023-02-25T13:50:14.107Z,96123.56
2023-02-25T13:54:54.542Z,96125.09
2023-02-25T13:59:12.132Z,96121.25
2023-02-25T14:03:33.876Z,96131.09
2023-02-25T14:08:01.627Z,96146.13
2023-02-25T14:12:14.833Z,96147.91
2023-02-25T14:16:29.976Z,96153.81
2023-02-25T14:20:40.508Z,96161.50
2023-02-25T14:24:48.250Z,96151.16
2023-02-25T14:29:06.617Z,96132.28
2023-02-25T14:33:26.613Z,96127.34
2023-02-25T14:37:40.170Z,96136.59
2023-02-25T14:41:54.994Z,96141.03
2023-02-25T14:46:03.714Z,96174.03
2023-02-25T14:50:15.660Z,96177.34
2023-02-25T14:54:48.300Z,96183.13
2023-02-25T14:59:05.573Z,96199.91
2023-02-25T15:03:27.552Z,96199.75
2023-02-25T15:07:55.790Z,96195.88
2023-02-25T15:12:23.156Z,96207.25
2023-02-25T15:16:57.257Z,96199.69
2023-02-25T15:21:35.746Z,96217.19
2023-02-25T15:25:50.581Z,96224.94
2023-02-25T15:30:00.723Z,96229.47
2023-02-25T15:34:43.210Z,96231.72
2023-02-25T15:38:49.021Z,96215.66
2023-02-25T15:42:54.182Z,96226.56
2023-02-25T15:47:19.050Z,96238.16
2023-02-25T15:51:42.283Z,96240.34
2023-02-25T15:55:47.770Z,96241.28
2023-02-25T15:59:52.923Z,96244.88
2023-02-25T16:03:55.947Z,96245.31
2023-02-25T16:08:17.361Z,96255.63
2023-02-25T16:12:22.072Z,96277.47
2023-02-25T16:16:26.283Z,96275.84
2023-02-25T16:20:34.754Z,96257.28
2023-02-25T16:24:37.751Z,96272.19
2023-02-25T16:28:48.299Z,96271.44
2023-02-25T16:33:03.629Z,96272.66
2023-02-25T16:37:12.677Z,96265.63
2023-02-25T16:41:16.062Z,96274.97
2023-02-25T16:45:28.199Z,96287.53
2023-02-25T16:49:35.664Z,96290.13
2023-02-25T16:53:43.761Z,96288.50
2023-02-25T16:58:01.850Z,96302.13
2023-02-25T17:02:24.999Z,96303.28
2023-02-25T17:06:27.655Z,96309.00
2023-02-25T17:10:34.581Z,96320.00
2023-02-25T17:14:37.163Z,96324.22
2023-02-25T17:18:48.788Z,96330.91
2023-02-25T17:22:52.681Z,96347.28
2023-02-25T17:26:55.796Z,96347.81
2023-02-25T17:31:09.087Z,96363.84
2023-02-25T17:35:13.346Z,96364.03
2023-02-25T17:39:18.929Z,96369.56
2023-02-25T17:43:25.049Z,96378.19
2023-02-25T17:47:30.593Z,96375.88
2023-02-25T17:51:36.296Z,96383.94
2023-02-25T17:55:39.050Z,96384.75
2023-02-25T17:59:43.771Z,96376.00
2023-02-25T18:03:47.996Z,96374.91
2023-02-25T18:08:09.089Z,96392.84
2023-02-25T18:12:25.010Z,96398.59
2023-02-25T18:16:39.778Z,96401.91
2023-02-25T18:20:46.328Z,96411.78
2023-02-25T18:24:55.580Z,96410.88
2023-02-25T18:28:58.537Z,96420.00
2023-02-25T18:33:01.465Z,96418.06
2023-02-25T18:37:05.262Z,96427.72
2023-02-25T18:41:09.316Z,96432.19
2023-02-25T18:45:16.845Z,96431.84
2023-02-25T18:49:19.678Z,96427.34
2023-02-25T18:53:25.541Z,96431.00
2023-02-25T18:57:29.791Z,96437.25
2023-02-25T19:01:34.057Z,96430.78
2023-02-25T19:05:36.946Z,96429.94
2023-02-25T19:09:39.578Z,96442.19
2023-02-25T19:13:44.030Z,96450.53
2023-02-25T19:17:47.254Z,96462.34
2023-02-25T19:21:49.866Z,96453.59
2023-02-25T19:25:57.278Z,96456.19
2023-02-25T19:30:02.686Z,96469.91
2023-02-25T19:34:05.435Z,96483.34
2023-02-25T19:38:12.323Z,96482.59
2023-02-25T19:42:15.517Z,96485.00
2023-02-25T19:46:19.498Z,96476.25
2023-02-25T19:50:24.765Z,96483.38
2023-02-25T19:54:27.422Z,96498.84
2023-02-25T19:58:31.839Z,96503.03
2023-02-25T20:02:35.839Z,96494.72
2023-02-25T20:06:39.133Z,96516.63
2023-02-25T20:10:43.940Z,96519.81
2023-02-25T20:14:46.634Z,96515.16
2023-02-25T20:18:51.421Z,96518.50
2023-02-25T20:22:54.028Z,96520.47
2023-02-25T20:26:56.800Z,96526.63
2023-02-25T20:31:05.728Z,96521.31
2023-02-25T20:35:15.305Z,96526.09
2023-02-25T20:39:39.751Z,96527.78
2023-02-25T20:43:46.964Z,96533.56
2023-02-25T20:47:50.735Z,96532.91
2023-02-25T20:51:55.341Z,96535.56
2023-02-25T20:55:59.900Z,96539.06
2023-02-25T21:00:02.947Z,96528.28
2023-02-25T21:04:08.849Z,96541.22
2023-02-25T21:08:14.776Z,96544.56
2023-02-25T21:12:17.425Z,96548.69
2023-02-25T21:16:21.950Z,96551.69
2023-02-25T21:20:24.929Z,96544.06
2023-02-25T21:24:33.373Z,96549.03
2023-02-25T21:28:37.398Z,96564.97
2023-02-25T21:32:40.120Z,96571.09
2023-02-25T21:36:43.341Z,96575.59
2023-02-25T21:40:48.161Z,96579.56
2023-02-25T21:44:50.842Z,96573.28
2023-02-25T21:48:55.784Z,96568.81
2023-02-25T21:52:58.684Z,96569.31
2023-02-25T21:57:02.878Z,96574.28
2023-02-25T22:01:16.682Z,96571.94
2023-02-25T22:05:20.295Z,96583.06
2023-02-25T22:09:22.894Z,96580.06
2023-02-25T22:13:26.952Z,96575.09
2023-02-25T22:17:29.661Z,96572.59
2023-02-25T22:21:34.428Z,96571.63
2023-02-25T22:25:37.174Z,96567.59
2023-02-25T22:29:41.198Z,96561.16
2023-02-25T22:33:44.650Z,96573.25
2023-02-25T22:37:47.337Z,96576.59
2023-02-25T22:41:50.805Z,96575.09
2023-02-25T22:46:04.751Z,96582.88
2023-02-25T22:50:09.055Z,96584.69
2023-02-25T22:54:12.843Z,96579.41
2023-02-25T22:58:15.446Z,96577.91
2023-02-25T23:02:19.402Z,96585.53
2023-02-25T23:06:34.130Z,96600.75
2023-02-25T23:10:45.189Z,96604.88
2023-02-25T23:14:47.803Z,96614.00
2023-02-25T23:18:52.540Z,96616.81
2023-02-25T23:26:58.863Z,96618.97
2023-02-25T23:31:01.532Z,96611.13
2023-02-25T23:35:06.000Z,96623.72
2023-02-25T23:39:09.812Z,96623.41
2023-02-25T23:43:12.446Z,96620.56
2023-02-25T23:47:15.155Z,96634.00
2023-02-25T23:51:19.169Z,96629.16
2023-02-25T23:55:22.293Z,96637.13
2023-02-25T23:59:24.912Z,96638.13
